Terminal Aerodrome Forecast
Issued by NWS Tampa Bay Area, FL

Home | Current Version | Previous Version | Text Only | Print | Product List | Glossary On
Versions: 1 2 3 4 5 6 7 8 9 10 11 12 13 14 15 16 17
644
FTUS42 KTBW 231424 AAA
TAFSRQ
TAF AMD
KSRQ 231424Z 2314/2412 18010KT P6SM SCT020 SCT120 BKN200
      TEMPO 2314/2316 BKN020
     FM231600 20015G21KT P6SM SCT025 BKN050
     FM231800 21017G26KT P6SM VCTS SCT035CB BKN050
     FM240000 23014G22KT P6SM SCT050 SCT150 BKN200
     FM240700 21014G23KT P6SM VCTS SCT015CB BKN025 OVC050=

USA.gov is the U.S. government's official web portal to all federal, state and local government web resources and services.